createdAt,value
2017-04-09T00:00:43.630Z,0
2017-04-09T00:01:52.668Z,0
2017-04-09T00:03:01.875Z,0
2017-04-09T00:04:10.834Z,0
2017-04-09T00:05:19.878Z,0
2017-04-09T00:06:28.931Z,0
2017-04-09T00:07:38.218Z,0
2017-04-09T00:08:47.428Z,0
2017-04-09T00:09:56.387Z,0
2017-04-09T00:11:05.340Z,0
2017-04-09T00:12:14.300Z,0
2017-04-09T00:13:23.275Z,0
2017-04-09T00:14:32.490Z,0
2017-04-09T00:15:41.445Z,0
2017-04-09T00:16:50.402Z,0
2017-04-09T00:17:59.358Z,0
2017-04-09T00:19:08.312Z,0
2017-04-09T00:20:17.514Z,0
2017-04-09T00:21:26.469Z,0
2017-04-09T00:22:35.429Z,0
2017-04-09T00:23:44.382Z,0
2017-04-09T00:24:53.330Z,0
2017-04-09T00:26:02.531Z,0
2017-04-09T00:27:11.486Z,0
2017-04-09T00:28:20.439Z,0
2017-04-09T00:29:29.389Z,0
2017-04-09T00:30:38.350Z,0
2017-04-09T00:31:47.884Z,0
2017-04-09T00:32:56.851Z,0
2017-04-09T00:34:05.811Z,0
2017-04-09T00:35:14.768Z,0
2017-04-09T00:36:23.729Z,0
2017-04-09T00:37:32.934Z,0
2017-04-09T00:38:41.889Z,0
2017-04-09T00:39:50.850Z,0
2017-04-09T00:40:59.805Z,0
2017-04-09T00:42:08.777Z,0
2017-04-09T00:43:17.986Z,0
2017-04-09T00:44:26.946Z,0
2017-04-09T00:45:35.911Z,0
2017-04-09T00:46:44.873Z,0
2017-04-09T00:47:53.913Z,0
2017-04-09T00:49:03.115Z,0
2017-04-09T00:50:12.077Z,0
2017-04-09T00:51:21.040Z,0
2017-04-09T00:52:30.003Z,0
2017-04-09T00:53:38.971Z,0
2017-04-09T00:54:48.321Z,0
2017-04-09T00:55:57.278Z,0
2017-04-09T00:57:06.241Z,0
2017-04-09T00:58:15.203Z,0
2017-04-09T00:59:24.487Z,0
2017-04-09T01:00:33.692Z,0
2017-04-09T01:01:42.650Z,0
2017-04-09T01:02:51.936Z,0
2017-04-09T01:04:00.890Z,0
2017-04-09T01:05:09.840Z,0
2017-04-09T01:06:19.139Z,0
2017-04-09T01:07:28.101Z,0
2017-04-09T01:08:37.069Z,0
2017-04-09T01:09:46.029Z,0
2017-04-09T01:10:54.994Z,0
2017-04-09T01:12:04.198Z,0
2017-04-09T01:13:13.157Z,0
2017-04-09T01:14:22.217Z,0
2017-04-09T01:15:31.259Z,0
2017-04-09T01:16:40.214Z,0
2017-04-09T01:17:49.432Z,0
2017-04-09T01:18:58.387Z,0
2017-04-09T01:20:07.342Z,0
2017-04-09T01:21:16.385Z,0
2017-04-09T01:22:25.345Z,0
2017-04-09T01:23:34.556Z,0
2017-04-09T01:24:43.508Z,0
2017-04-09T01:25:52.466Z,0
2017-04-09T01:27:01.420Z,0
2017-04-09T01:28:10.371Z,0
2017-04-09T01:29:19.573Z,0
2017-04-09T01:30:28.528Z,0
2017-04-09T01:31:37.483Z,0
2017-04-09T01:32:46.441Z,0
2017-04-09T01:33:55.390Z,0
2017-04-09T01:35:04.681Z,0
2017-04-09T01:36:13.634Z,0
2017-04-09T01:37:22.589Z,0
2017-04-09T01:38:31.547Z,0
2017-04-09T01:39:40.499Z,0
2017-04-09T01:40:49.706Z,0
2017-04-09T01:41:58.667Z,0
2017-04-09T01:43:07.622Z,0
2017-04-09T01:44:16.594Z,0
2017-04-09T01:45:25.549Z,0
2017-04-09T01:46:34.755Z,0
2017-04-09T01:47:43.717Z,0
2017-04-09T01:48:52.678Z,0
2017-04-09T01:50:01.633Z,0
2017-04-09T01:51:10.688Z,0
2017-04-09T01:52:19.896Z,0
2017-04-09T01:53:28.853Z,0
2017-04-09T01:54:37.815Z,0
2017-04-09T01:55:46.772Z,0
2017-04-09T01:56:55.728Z,0
2017-04-09T01:58:05.024Z,0
2017-04-09T01:59:14.075Z,0
2017-04-09T02:00:23.029Z,0
2017-04-09T02:01:31.989Z,0
2017-04-09T02:02:40.945Z,0
2017-04-09T02:03:50.158Z,0
2017-04-09T02:04:59.116Z,0
2017-04-09T02:06:08.070Z,0
2017-04-09T02:07:17.030Z,0
2017-04-09T02:08:25.989Z,0
2017-04-09T02:09:35.195Z,0
2017-04-09T02:10:44.156Z,0
2017-04-09T02:11:53.117Z,0
2017-04-09T02:13:02.076Z,0
2017-04-09T02:14:11.035Z,0
2017-04-09T02:15:20.242Z,0
2017-04-09T02:16:29.193Z,0
2017-04-09T02:17:38.154Z,0
2017-04-09T02:18:47.113Z,0
2017-04-09T02:19:56.408Z,0
2017-04-09T02:21:05.614Z,0
2017-04-09T02:22:14.571Z,0
2017-04-09T02:23:23.522Z,0
2017-04-09T02:24:32.565Z,0
2017-04-09T02:25:41.524Z,0
2017-04-09T02:26:50.728Z,0
2017-04-09T02:27:59.681Z,0
2017-04-09T02:29:08.727Z,0
2017-04-09T02:30:17.681Z,0
2017-04-09T02:31:26.634Z,0
2017-04-09T02:32:35.844Z,0
2017-04-09T02:33:44.805Z,0
2017-04-09T02:34:53.768Z,0
2017-04-09T02:36:02.724Z,0
2017-04-09T02:37:11.684Z,0
2017-04-09T02:38:20.888Z,0
2017-04-09T02:39:29.846Z,0
2017-04-09T02:40:38.804Z,0
2017-04-09T02:41:47.768Z,0
2017-04-09T02:42:56.731Z,0
2017-04-09T02:44:05.950Z,0
2017-04-09T02:45:15.002Z,0
2017-04-09T02:46:23.955Z,0
2017-04-09T02:47:32.911Z,0
2017-04-09T02:48:41.867Z,0
2017-04-09T02:49:51.072Z,0
2017-04-09T02:51:00.032Z,0
2017-04-09T02:52:08.991Z,0
2017-04-09T02:53:17.940Z,0
2017-04-09T02:54:26.895Z,0
2017-04-09T02:55:36.103Z,0
2017-04-09T02:56:45.052Z,0
2017-04-09T02:57:54.005Z,0
2017-04-09T02:59:02.959Z,0
2017-04-09T03:00:11.915Z,0
2017-04-09T03:01:21.170Z,0
2017-04-09T03:02:30.130Z,0
2017-04-09T03:03:39.087Z,0
2017-04-09T03:04:48.036Z,0
2017-04-09T03:05:56.990Z,0
2017-04-09T03:07:06.287Z,0
2017-04-09T03:08:15.245Z,0
2017-04-09T03:09:24.209Z,0
2017-04-09T03:10:33.203Z,0
2017-04-09T03:11:42.171Z,0
2017-04-09T03:12:51.382Z,0
2017-04-09T03:14:00.348Z,0
2017-04-09T03:15:09.392Z,0
2017-04-09T03:16:18.352Z,0
2017-04-09T03:17:27.307Z,0
2017-04-09T03:18:36.522Z,0
2017-04-09T03:19:45.475Z,0
2017-04-09T03:20:54.427Z,0
2017-04-09T03:22:03.382Z,0
2017-04-09T03:23:12.336Z,0
2017-04-09T03:24:21.553Z,0
2017-04-09T03:25:31.250Z,0
2017-04-09T03:26:40.208Z,0
2017-04-09T03:27:49.173Z,0
2017-04-09T03:28:58.230Z,0
2017-04-09T03:30:07.438Z,0
2017-04-09T03:31:16.394Z,0
2017-04-09T03:32:25.359Z,0
2017-04-09T03:33:34.650Z,0
2017-04-09T03:34:43.606Z,0
2017-04-09T03:35:52.815Z,0
2017-04-09T03:37:01.769Z,0
2017-04-09T03:38:11.051Z,0
2017-04-09T03:39:20.044Z,0
2017-04-09T03:40:29.003Z,0
2017-04-09T03:41:38.205Z,0
2017-04-09T03:42:47.166Z,0
2017-04-09T03:43:56.123Z,0
2017-04-09T03:45:05.080Z,0
2017-04-09T03:46:14.033Z,0
2017-04-09T03:47:23.239Z,0
2017-04-09T03:48:32.197Z,0
2017-04-09T03:49:41.154Z,0
2017-04-09T03:50:50.113Z,0
2017-04-09T03:51:59.065Z,0
2017-04-09T03:53:08.273Z,0
2017-04-09T03:54:17.232Z,0
2017-04-09T03:55:26.194Z,0
2017-04-09T03:56:35.146Z,0
2017-04-09T03:57:44.095Z,0
2017-04-09T03:58:53.292Z,0
2017-04-09T04:00:02.245Z,0
2017-04-09T04:01:11.205Z,0
2017-04-09T04:02:20.163Z,4
2017-04-09T04:03:29.119Z,4
2017-04-09T04:04:38.330Z,4
2017-04-09T04:05:47.284Z,4
2017-04-09T04:06:56.325Z,4
2017-04-09T04:08:05.281Z,4
2017-04-09T04:09:14.567Z,8
2017-04-09T04:10:23.908Z,8
2017-04-09T04:11:32.864Z,8
2017-04-09T04:12:41.811Z,12
2017-04-09T04:13:50.761Z,12
2017-04-09T04:14:59.725Z,12
2017-04-09T04:16:08.984Z,16
2017-04-09T04:17:17.963Z,16
2017-04-09T04:18:26.915Z,24
2017-04-09T04:19:35.874Z,24
2017-04-09T04:20:44.830Z,28
2017-04-09T04:21:54.036Z,32
2017-04-09T04:23:02.994Z,36
2017-04-09T04:24:11.948Z,40
2017-04-09T04:25:20.917Z,44
2017-04-09T04:26:29.875Z,44
2017-04-09T04:27:39.081Z,48
2017-04-09T04:28:48.093Z,52
2017-04-09T04:29:57.045Z,56
2017-04-09T04:31:05.999Z,60
2017-04-09T04:32:14.952Z,60
2017-04-09T04:33:24.162Z,64
2017-04-09T04:34:33.115Z,68
2017-04-09T04:35:42.073Z,72
2017-04-09T04:36:51.028Z,80
2017-04-09T04:37:59.981Z,88
2017-04-09T04:39:09.203Z,100
2017-04-09T04:40:18.480Z,108
2017-04-09T04:41:27.519Z,116
2017-04-09T04:42:36.473Z,120
2017-04-09T04:43:45.442Z,124
2017-04-09T04:44:54.645Z,132
2017-04-09T04:46:03.603Z,144
2017-04-09T04:47:12.556Z,152
2017-04-09T04:48:21.521Z,164
2017-04-09T04:49:30.487Z,168
2017-04-09T04:50:39.694Z,176
2017-04-09T04:51:48.654Z,184
2017-04-09T04:52:57.613Z,196
2017-04-09T04:54:06.565Z,204
2017-04-09T04:55:15.537Z,212
2017-04-09T04:56:24.753Z,220
2017-04-09T04:57:33.705Z,228
2017-04-09T04:58:42.662Z,232
2017-04-09T04:59:51.627Z,240
2017-04-09T05:01:00.583Z,240
2017-04-09T05:02:10.118Z,240
2017-04-09T05:03:19.075Z,240
2017-04-09T05:04:28.026Z,244
2017-04-09T05:05:36.982Z,256
2017-04-09T05:06:45.932Z,272
2017-04-09T05:07:55.136Z,292
2017-04-09T05:09:04.095Z,312
2017-04-09T05:10:13.054Z,332
2017-04-09T05:11:22.007Z,348
2017-04-09T05:12:30.966Z,360
2017-04-09T05:13:40.177Z,368
2017-04-09T05:14:49.131Z,368
2017-04-09T05:15:58.091Z,380
2017-04-09T05:17:07.049Z,372
2017-04-09T05:18:16.005Z,368
2017-04-09T05:19:25.221Z,376
2017-04-09T05:20:34.177Z,396
2017-04-09T05:21:43.128Z,424
2017-04-09T05:22:52.082Z,448
2017-04-09T05:24:01.124Z,476
2017-04-09T05:25:10.341Z,516
2017-04-09T05:26:19.297Z,548
2017-04-09T05:27:28.251Z,584
2017-04-09T05:28:37.204Z,640
2017-04-09T05:29:46.163Z,684
2017-04-09T05:30:55.376Z,724
2017-04-09T05:32:04.333Z,744
2017-04-09T05:33:13.294Z,724
2017-04-09T05:34:22.254Z,708
2017-04-09T05:35:31.210Z,688
2017-04-09T05:36:40.451Z,704
2017-04-09T05:37:49.413Z,740
2017-04-09T05:38:58.367Z,752
2017-04-09T05:40:07.321Z,788
2017-04-09T05:41:16.273Z,820
2017-04-09T05:42:25.493Z,832
2017-04-09T05:43:34.444Z,856
2017-04-09T05:44:43.403Z,908
2017-04-09T05:45:52.356Z,968
2017-04-09T05:47:01.351Z,1020
2017-04-09T05:48:10.874Z,1076
2017-04-09T05:49:19.831Z,1124
2017-04-09T05:50:28.799Z,1152
2017-04-09T05:51:37.774Z,1152
2017-04-09T05:52:46.732Z,1188
2017-04-09T05:53:55.937Z,1240
2017-04-09T05:55:04.899Z,1304
2017-04-09T05:56:13.853Z,1360
2017-04-09T05:57:22.896Z,1384
2017-04-09T05:58:31.856Z,1372
2017-04-09T05:59:41.397Z,1360
2017-04-09T06:00:50.772Z,1376
2017-04-09T06:01:59.728Z,1384
2017-04-09T06:03:09.088Z,1388
2017-04-09T06:04:18.042Z,1432
2017-04-09T06:05:27.253Z,1468
2017-04-09T06:06:36.544Z,1492
2017-04-09T06:07:45.500Z,1480
2017-04-09T06:08:54.543Z,1472
2017-04-09T06:10:03.507Z,1476
2017-04-09T06:11:12.714Z,1588
2017-04-09T06:12:21.669Z,1660
2017-04-09T06:13:30.625Z,1668
2017-04-09T06:14:39.584Z,1580
2017-04-09T06:15:48.541Z,1548
2017-04-09T06:16:57.753Z,1576
2017-04-09T06:18:06.708Z,1604
2017-04-09T06:19:15.664Z,1604
2017-04-09T06:20:24.620Z,1656
2017-04-09T06:21:33.572Z,1776
2017-04-09T06:22:42.777Z,1888
2017-04-09T06:23:51.741Z,1988
2017-04-09T06:25:00.697Z,2080
2017-04-09T06:26:09.739Z,2196
2017-04-09T06:27:18.699Z,2280
2017-04-09T06:28:27.915Z,2356
2017-04-09T06:29:36.875Z,2440
2017-04-09T06:30:45.832Z,2268
2017-04-09T06:31:54.794Z,1984
2017-04-09T06:33:03.755Z,2148
2017-04-09T06:34:12.964Z,2284
2017-04-09T06:35:21.919Z,2656
2017-04-09T06:36:30.873Z,2808
2017-04-09T06:37:39.827Z,2776
2017-04-09T06:38:48.783Z,2660
2017-04-09T06:39:57.989Z,2744
2017-04-09T06:41:06.958Z,2816
2017-04-09T06:42:15.913Z,2956
2017-04-09T06:43:24.883Z,2768
2017-04-09T06:44:33.934Z,2536
2017-04-09T06:45:43.300Z,2484
2017-04-09T06:46:52.254Z,2556
2017-04-09T06:48:01.204Z,2812
2017-04-09T06:49:10.160Z,2756
2017-04-09T06:50:19.115Z,2892
2017-04-09T06:51:28.321Z,2892
2017-04-09T06:52:37.289Z,3020
2017-04-09T06:53:46.252Z,3092
2017-04-09T06:54:55.207Z,3096
2017-04-09T06:56:04.172Z,2892
2017-04-09T06:57:13.375Z,2784
2017-04-09T06:58:22.361Z,2816
2017-04-09T06:59:31.322Z,2864
2017-04-09T07:00:40.275Z,2832
2017-04-09T07:01:49.228Z,2868
2017-04-09T07:02:58.435Z,3008
2017-04-09T07:04:07.402Z,2888
2017-04-09T07:05:16.363Z,2844
2017-04-09T07:06:25.328Z,2816
2017-04-09T07:07:34.288Z,2624
2017-04-09T07:08:43.497Z,2532
2017-04-09T07:09:52.460Z,2676
2017-04-09T07:11:01.515Z,2744
2017-04-09T07:12:10.474Z,2652
2017-04-09T07:13:19.440Z,2640
2017-04-09T07:14:28.650Z,2716
2017-04-09T07:15:37.609Z,2832
2017-04-09T07:16:46.562Z,2964
2017-04-09T07:17:55.529Z,3040
2017-04-09T07:19:04.495Z,3052
2017-04-09T07:20:13.738Z,2896
2017-04-09T07:21:22.694Z,3016
2017-04-09T07:22:31.651Z,3204
2017-04-09T07:23:40.611Z,3060
2017-04-09T07:24:49.569Z,2984
2017-04-09T07:25:58.781Z,2908
2017-04-09T07:27:07.740Z,2840
2017-04-09T07:28:16.703Z,2784
2017-04-09T07:29:25.665Z,2948
2017-04-09T07:30:34.625Z,2984
2017-04-09T07:31:43.836Z,3048
2017-04-09T07:32:52.794Z,3060
2017-04-09T07:34:01.750Z,2912
2017-04-09T07:35:10.710Z,2868
2017-04-09T07:36:19.668Z,2812
2017-04-09T07:37:28.874Z,2804
2017-04-09T07:38:37.832Z,2844
2017-04-09T07:39:46.785Z,2924
2017-04-09T07:40:55.747Z,3004
2017-04-09T07:42:04.743Z,3040
2017-04-09T07:43:13.955Z,3100
2017-04-09T07:44:22.913Z,2984
2017-04-09T07:45:31.872Z,3040
2017-04-09T07:46:41.176Z,3040
2017-04-09T07:47:50.132Z,3064
2017-04-09T07:48:59.341Z,3076
2017-04-09T07:50:08.301Z,3116
2017-04-09T07:51:17.348Z,3200
2017-04-09T07:52:26.306Z,3344
2017-04-09T07:53:35.261Z,3352
2017-04-09T07:54:44.476Z,3284
2017-04-09T07:55:53.436Z,3312
2017-04-09T07:57:02.391Z,3304
2017-04-09T07:58:11.433Z,3280
2017-04-09T07:59:20.391Z,3308
2017-04-09T08:00:29.605Z,3372
2017-04-09T08:01:38.561Z,3588
2017-04-09T08:02:47.533Z,4036
2017-04-09T08:03:56.493Z,3712
2017-04-09T08:05:05.451Z,3772
2017-04-09T08:06:14.661Z,3636
2017-04-09T08:07:23.621Z,3576
2017-04-09T08:08:32.585Z,3940
2017-04-09T08:09:41.554Z,3896
2017-04-09T08:10:50.511Z,4204
2017-04-09T08:11:59.729Z,4420
2017-04-09T08:13:08.701Z,4156
2017-04-09T08:14:17.661Z,4248
2017-04-09T08:15:26.618Z,4332
2017-04-09T08:16:35.568Z,4196
2017-04-09T08:17:44.785Z,4608
2017-04-09T08:18:53.737Z,4008
2017-04-09T08:20:02.787Z,3888
2017-04-09T08:21:11.755Z,3720
2017-04-09T08:22:20.715Z,4128
2017-04-09T08:23:29.922Z,4132
2017-04-09T08:24:38.887Z,4228
2017-04-09T08:25:47.853Z,4744
2017-04-09T08:26:56.806Z,4964
2017-04-09T08:28:05.774Z,5092
2017-04-09T08:29:14.985Z,5276
2017-04-09T08:30:24.031Z,3944
2017-04-09T08:31:33.315Z,4432
2017-04-09T08:32:42.271Z,5020
2017-04-09T08:33:51.225Z,5924
2017-04-09T08:35:00.440Z,5944
2017-04-09T08:36:09.403Z,4840
2017-04-09T08:37:18.368Z,3964
2017-04-09T08:38:27.327Z,3936
2017-04-09T08:39:36.286Z,3696
2017-04-09T08:40:45.491Z,3756
2017-04-09T08:41:54.450Z,3988
2017-04-09T08:43:03.405Z,4120
2017-04-09T08:44:12.362Z,3800
2017-04-09T08:45:21.324Z,3372
2017-04-09T08:46:30.531Z,3844
2017-04-09T08:47:39.488Z,3660
2017-04-09T08:48:48.447Z,3536
2017-04-09T08:49:57.409Z,3376
2017-04-09T08:51:06.367Z,3800
2017-04-09T08:52:15.578Z,3708
2017-04-09T08:53:24.578Z,3676
2017-04-09T08:54:33.530Z,3692
2017-04-09T08:55:42.501Z,3728
2017-04-09T08:56:51.466Z,3868
2017-04-09T08:58:00.707Z,4088
2017-04-09T08:59:09.661Z,4276
2017-04-09T09:00:18.621Z,4328
2017-04-09T09:01:27.573Z,4072
2017-04-09T09:02:36.619Z,4000
2017-04-09T09:03:45.823Z,3956
2017-04-09T09:04:54.788Z,3640
2017-04-09T09:06:03.750Z,3380
2017-04-09T09:07:12.706Z,3380
2017-04-09T09:08:21.660Z,3552
2017-04-09T09:09:30.863Z,3392
2017-04-09T09:10:39.822Z,3320
2017-04-09T09:11:48.781Z,3324
2017-04-09T09:12:57.734Z,3356
2017-04-09T09:14:06.690Z,3104
2017-04-09T09:15:15.899Z,2944
2017-04-09T09:16:24.857Z,3012
2017-04-09T09:17:33.817Z,3212
2017-04-09T09:18:42.777Z,3368
2017-04-09T09:19:51.829Z,3592
2017-04-09T09:21:01.039Z,3552
2017-04-09T09:22:09.997Z,3456
2017-04-09T09:23:18.951Z,3408
2017-04-09T09:24:27.917Z,3344
2017-04-09T09:25:36.884Z,3364
2017-04-09T09:26:46.090Z,3332
2017-04-09T09:27:55.047Z,3336
2017-04-09T09:29:04.014Z,3304
2017-04-09T09:30:12.978Z,3444
2017-04-09T09:31:21.934Z,3456
2017-04-09T09:32:31.145Z,3356
2017-04-09T09:33:40.107Z,3304
2017-04-09T09:34:49.074Z,3288
2017-04-09T09:35:58.029Z,3260
2017-04-09T09:37:06.996Z,3396
2017-04-09T09:38:16.542Z,3476
2017-04-09T09:39:25.502Z,3828
2017-04-09T09:40:34.460Z,4012
2017-04-09T09:41:43.417Z,4032
2017-04-09T09:42:52.372Z,3952
2017-04-09T09:44:01.631Z,3524
2017-04-09T09:45:10.588Z,2876
2017-04-09T09:46:19.544Z,2820
2017-04-09T09:47:28.501Z,3036
2017-04-09T09:48:37.497Z,3112
2017-04-09T09:49:46.708Z,3172
2017-04-09T09:50:55.664Z,3232
2017-04-09T09:52:04.619Z,3248
2017-04-09T09:53:13.611Z,3268
2017-04-09T09:54:22.572Z,3292
2017-04-09T09:55:31.793Z,3316
2017-04-09T09:56:41.173Z,3292
2017-04-09T09:57:50.131Z,3280
2017-04-09T09:58:59.097Z,3288
2017-04-09T10:00:08.107Z,3300
2017-04-09T10:01:17.651Z,3392
2017-04-09T10:02:26.613Z,3580
2017-04-09T10:03:35.569Z,3780
2017-04-09T10:04:44.534Z,3784
2017-04-09T10:05:53.501Z,3880
2017-04-09T10:07:02.743Z,3928
2017-04-09T10:08:11.702Z,3692
2017-04-09T10:09:20.656Z,3444
2017-04-09T10:10:29.942Z,3296
2017-04-09T10:11:38.907Z,3248
2017-04-09T10:12:48.123Z,3260
2017-04-09T10:13:57.095Z,3224
2017-04-09T10:15:06.062Z,3212
2017-04-09T10:16:15.025Z,3216
2017-04-09T10:17:24.019Z,3224
2017-04-09T10:18:33.228Z,3196
2017-04-09T10:19:42.284Z,3244
2017-04-09T10:20:51.242Z,3308
2017-04-09T10:22:00.200Z,3232
2017-04-09T10:23:09.157Z,3156
2017-04-09T10:24:18.417Z,3128
2017-04-09T10:25:27.383Z,3140
2017-04-09T10:26:36.345Z,3144
2017-04-09T10:27:45.305Z,3172
2017-04-09T10:28:54.262Z,3156
2017-04-09T10:30:03.471Z,3168
2017-04-09T10:31:12.431Z,3244
2017-04-09T10:32:21.389Z,3192
2017-04-09T10:33:30.346Z,3132
2017-04-09T10:34:39.299Z,3216
2017-04-09T10:35:48.511Z,3212
2017-04-09T10:36:57.468Z,3096
2017-04-09T10:38:06.429Z,3044
2017-04-09T10:39:15.410Z,3080
2017-04-09T10:40:24.372Z,3016
2017-04-09T10:41:33.582Z,3008
2017-04-09T10:42:42.537Z,3020
2017-04-09T10:43:51.505Z,3024
2017-04-09T10:45:00.461Z,3056
2017-04-09T10:46:09.423Z,3116
2017-04-09T10:47:18.635Z,3104
2017-04-09T10:48:27.592Z,3092
2017-04-09T10:49:36.553Z,3076
2017-04-09T10:50:45.514Z,3064
2017-04-09T10:51:54.475Z,3028
2017-04-09T10:53:03.687Z,3020
2017-04-09T10:54:12.973Z,3052
2017-04-09T10:55:21.937Z,2976
2017-04-09T10:56:30.897Z,2980
2017-04-09T10:57:39.858Z,2992
2017-04-09T10:58:49.069Z,2984
2017-04-09T10:59:58.025Z,2948
2017-04-09T11:01:06.982Z,2912
2017-04-09T11:02:16.267Z,2880
2017-04-09T11:03:25.226Z,2916
2017-04-09T11:04:34.438Z,2908
2017-04-09T11:05:43.397Z,2872
2017-04-09T11:06:52.363Z,2832
2017-04-09T11:08:01.319Z,2804
2017-04-09T11:09:10.276Z,2808
2017-04-09T11:10:19.484Z,2800
2017-04-09T11:11:28.438Z,2792
2017-04-09T11:12:37.481Z,2788
2017-04-09T11:13:46.440Z,2800
2017-04-09T11:14:55.395Z,2788
2017-04-09T11:16:04.604Z,2760
2017-04-09T11:17:13.566Z,2744
2017-04-09T11:18:22.522Z,2744
2017-04-09T11:19:31.472Z,2768
2017-04-09T11:20:40.440Z,2788
2017-04-09T11:21:49.649Z,2788
2017-04-09T11:22:58.607Z,2772
2017-04-09T11:24:07.710Z,2748
2017-04-09T11:25:16.670Z,2728
2017-04-09T11:26:25.634Z,2740
2017-04-09T11:27:34.849Z,2716
2017-04-09T11:28:43.821Z,2696
2017-04-09T11:29:52.782Z,2696
2017-04-09T11:31:01.746Z,2704
2017-04-09T11:32:10.713Z,2688
2017-04-09T11:33:19.938Z,2696
2017-04-09T11:34:28.907Z,2708
2017-04-09T11:35:37.866Z,2680
2017-04-09T11:36:46.823Z,2648
2017-04-09T11:37:55.784Z,2620
2017-04-09T11:39:05.002Z,2608
2017-04-09T11:40:13.962Z,2588
2017-04-09T11:41:22.918Z,2564
2017-04-09T11:42:31.881Z,2528
2017-04-09T11:43:41.175Z,2532
2017-04-09T11:44:50.380Z,2520
2017-04-09T11:45:59.340Z,2512
2017-04-09T11:47:08.315Z,2524
2017-04-09T11:48:17.277Z,2512
2017-04-09T11:49:26.237Z,2480
2017-04-09T11:50:35.445Z,2476
2017-04-09T11:51:44.405Z,2472
2017-04-09T11:52:53.469Z,2484
2017-04-09T11:54:02.426Z,2444
2017-04-09T11:55:11.392Z,2424
2017-04-09T11:56:20.604Z,2444
2017-04-09T11:57:29.562Z,2456
2017-04-09T11:58:38.524Z,2468
2017-04-09T11:59:47.489Z,2440
2017-04-09T12:00:56.449Z,2452
2017-04-09T12:02:05.706Z,2444
2017-04-09T12:03:14.664Z,2432
2017-04-09T12:04:23.620Z,2424
2017-04-09T12:05:32.583Z,2416
2017-04-09T12:06:41.543Z,2416
2017-04-09T12:07:50.787Z,2424
2017-04-09T12:08:59.753Z,2392
2017-04-09T12:10:08.720Z,2388
2017-04-09T12:11:17.679Z,2380
2017-04-09T12:12:26.638Z,2360
2017-04-09T12:13:35.848Z,2368
2017-04-09T12:14:44.814Z,2380
2017-04-09T12:15:53.777Z,2376
2017-04-09T12:17:02.739Z,2348
2017-04-09T12:18:12.025Z,2328
2017-04-09T12:19:21.240Z,2288
2017-04-09T12:20:30.205Z,2288
2017-04-09T12:21:39.170Z,2300
2017-04-09T12:22:48.134Z,2292
2017-04-09T12:23:57.087Z,2220
2017-04-09T12:25:06.619Z,2192
2017-04-09T12:26:15.578Z,2188
2017-04-09T12:27:24.534Z,2204
2017-04-09T12:28:33.504Z,2228
2017-04-09T12:29:42.460Z,2248
2017-04-09T12:30:51.666Z,2232
2017-04-09T12:32:00.623Z,2232
2017-04-09T12:33:09.589Z,2240
2017-04-09T12:34:18.551Z,2248
2017-04-09T12:35:27.507Z,2232
2017-04-09T12:36:36.731Z,2216
2017-04-09T12:37:45.692Z,2196
2017-04-09T12:38:54.655Z,2192
2017-04-09T12:40:03.615Z,2200
2017-04-09T12:41:12.577Z,2188
2017-04-09T12:42:21.795Z,2180
2017-04-09T12:43:30.761Z,2168
2017-04-09T12:44:39.727Z,2136
2017-04-09T12:45:48.689Z,2124
2017-04-09T12:46:57.771Z,2148
2017-04-09T12:48:06.988Z,2140
2017-04-09T12:49:15.950Z,2120
2017-04-09T12:50:24.936Z,2136
2017-04-09T12:51:33.902Z,2124
2017-04-09T12:52:42.871Z,2124
2017-04-09T12:53:52.095Z,2120
2017-04-09T12:55:01.058Z,2132
2017-04-09T12:56:10.018Z,2128
2017-04-09T12:57:18.977Z,2120
2017-04-09T12:58:27.946Z,2108
2017-04-09T12:59:37.168Z,2092
2017-04-09T13:00:46.125Z,2096
2017-04-09T13:01:55.088Z,2084
2017-04-09T13:03:04.076Z,2080
2017-04-09T13:04:13.053Z,2064
2017-04-09T13:05:22.269Z,2060
2017-04-09T13:06:31.251Z,2056
2017-04-09T13:07:40.213Z,2056
2017-04-09T13:08:49.184Z,2060
2017-04-09T13:09:58.150Z,2056
2017-04-09T13:11:07.365Z,2052
2017-04-09T13:12:16.326Z,2056
2017-04-09T13:13:25.286Z,2044
2017-04-09T13:14:34.243Z,2040
2017-04-09T13:15:43.204Z,2044
2017-04-09T13:16:52.500Z,2052
2017-04-09T13:18:01.458Z,2060
2017-04-09T13:19:10.508Z,2048
2017-04-09T13:20:19.489Z,2044
2017-04-09T13:21:28.451Z,2064
2017-04-09T13:22:37.656Z,2072
2017-04-09T13:23:46.613Z,2068
2017-04-09T13:24:55.574Z,2084
2017-04-09T13:26:04.534Z,2076
2017-04-09T13:27:13.494Z,2048
2017-04-09T13:28:22.705Z,2060
2017-04-09T13:29:31.668Z,2056
2017-04-09T13:30:40.958Z,2060
2017-04-09T13:31:49.924Z,2040
2017-04-09T13:32:58.889Z,2044
2017-04-09T13:34:08.111Z,2008
2017-04-09T13:35:17.077Z,2020
2017-04-09T13:36:26.047Z,2040
2017-04-09T13:37:35.045Z,2040
2017-04-09T13:38:44.009Z,2036
2017-04-09T13:39:53.219Z,2036
2017-04-09T13:41:02.185Z,2044
2017-04-09T13:42:11.147Z,2060
2017-04-09T13:43:20.105Z,2072
2017-04-09T13:44:29.076Z,2064
2017-04-09T13:45:38.284Z,2060
2017-04-09T13:46:47.250Z,2072
2017-04-09T13:47:56.219Z,2068
2017-04-09T13:49:05.191Z,2048
2017-04-09T13:50:14.895Z,2032
2017-04-09T13:51:24.106Z,2020
2017-04-09T13:52:33.071Z,2016
2017-04-09T13:53:42.041Z,2016
2017-04-09T13:54:51.043Z,2012
2017-04-09T13:56:00.001Z,2012
2017-04-09T13:57:09.261Z,2024
2017-04-09T13:58:18.222Z,2012
2017-04-09T13:59:27.185Z,1992
2017-04-09T14:00:36.153Z,1992
2017-04-09T14:01:45.113Z,1972
2017-04-09T14:02:54.325Z,1948
2017-04-09T14:04:03.644Z,1960
2017-04-09T14:05:12.602Z,1940
2017-04-09T14:06:21.564Z,1936
2017-04-09T14:07:30.560Z,1924
2017-04-09T14:08:39.765Z,1940
2017-04-09T14:09:48.723Z,1932
2017-04-09T14:10:57.682Z,1924
2017-04-09T14:12:06.645Z,1936
2017-04-09T14:13:15.626Z,1928
2017-04-09T14:14:24.841Z,1912
2017-04-09T14:15:33.797Z,1908
2017-04-09T14:16:42.846Z,1920
2017-04-09T14:17:51.838Z,1920
2017-04-09T14:19:00.800Z,1896
2017-04-09T14:20:10.011Z,1904
2017-04-09T14:21:18.981Z,1912
2017-04-09T14:22:27.973Z,1928
2017-04-09T14:23:36.940Z,1908
2017-04-09T14:24:45.904Z,1892
2017-04-09T14:25:55.122Z,1888
2017-04-09T14:27:04.082Z,1892
2017-04-09T14:28:13.045Z,1892
2017-04-09T14:29:22.097Z,1888
2017-04-09T14:30:31.062Z,1888
2017-04-09T14:31:40.271Z,1880
2017-04-09T14:32:49.248Z,1876
2017-04-09T14:33:58.215Z,1848
2017-04-09T14:35:07.180Z,1840
2017-04-09T14:36:16.143Z,1836
2017-04-09T14:37:25.363Z,1836
2017-04-09T14:38:34.325Z,1832
2017-04-09T14:39:43.292Z,1824
2017-04-09T14:40:52.251Z,1824
2017-04-09T14:42:01.535Z,1796
2017-04-09T14:43:10.745Z,1792
2017-04-09T14:44:19.792Z,1784
2017-04-09T14:45:28.751Z,1776
2017-04-09T14:46:37.709Z,1780
2017-04-09T14:47:46.676Z,1776
2017-04-09T14:48:55.886Z,1752
2017-04-09T14:50:04.849Z,1756
2017-04-09T14:51:13.814Z,1748
2017-04-09T14:52:22.776Z,1724
2017-04-09T14:53:31.744Z,1712
2017-04-09T14:54:40.971Z,1680
2017-04-09T14:55:49.942Z,1700
2017-04-09T14:56:58.903Z,1676
2017-04-09T14:58:07.867Z,1656
2017-04-09T14:59:16.832Z,1656
2017-04-09T15:00:26.045Z,1656
2017-04-09T15:01:35.012Z,1660
2017-04-09T15:02:44.067Z,1664
2017-04-09T15:03:53.036Z,1656
2017-04-09T15:05:01.993Z,1736
2017-04-09T15:06:11.203Z,1788
2017-04-09T15:07:20.167Z,1636
2017-04-09T15:08:29.131Z,1608
2017-04-09T15:09:38.093Z,1596
2017-04-09T15:10:47.060Z,1588
2017-04-09T15:11:56.305Z,1580
2017-04-09T15:13:05.270Z,1724
2017-04-09T15:14:14.238Z,2712
2017-04-09T15:15:23.197Z,2272
2017-04-09T15:16:32.156Z,1576
2017-04-09T15:17:41.396Z,1508
2017-04-09T15:18:50.448Z,1488
2017-04-09T15:19:59.413Z,1468
2017-04-09T15:21:08.378Z,1452
2017-04-09T15:22:17.335Z,1436
2017-04-09T15:23:26.544Z,1436
2017-04-09T15:24:35.510Z,1416
2017-04-09T15:25:44.475Z,1416
2017-04-09T15:26:53.435Z,1404
2017-04-09T15:28:02.403Z,1396
2017-04-09T15:29:11.615Z,1384
2017-04-09T15:30:20.580Z,1376
2017-04-09T15:31:29.544Z,1368
2017-04-09T15:32:38.846Z,1352
2017-04-09T15:33:47.820Z,1344
2017-04-09T15:34:57.068Z,1328
2017-04-09T15:36:06.034Z,1312
2017-04-09T15:37:15.002Z,1300
2017-04-09T15:38:23.966Z,1288
2017-04-09T15:39:32.928Z,1276
2017-04-09T15:40:42.139Z,1264
2017-04-09T15:41:51.098Z,1248
2017-04-09T15:43:00.063Z,1236
2017-04-09T15:44:09.022Z,1228
2017-04-09T15:45:17.988Z,1220
2017-04-09T15:46:27.205Z,1208
2017-04-09T15:47:36.172Z,1196